createdAt,value
2023-01-11T00:00:56.266Z,100.00
2023-01-11T00:03:23.095Z,100.00
2023-01-11T00:05:50.263Z,100.00
2023-01-11T00:08:17.107Z,100.00
2023-01-11T00:10:44.184Z,100.00
2023-01-11T00:13:11.016Z,100.00
2023-01-11T00:15:39.190Z,100.00
2023-01-11T00:18:06.289Z,100.00
2023-01-11T00:20:33.344Z,100.00
2023-01-11T00:23:00.359Z,100.00
2023-01-11T00:25:27.420Z,100.00
2023-01-11T00:27:54.912Z,100.00
2023-01-11T00:30:22.719Z,100.00
2023-01-11T00:32:49.530Z,100.00
2023-01-11T00:35:16.702Z,100.00
2023-01-11T00:37:43.513Z,100.00
2023-01-11T00:40:10.950Z,100.00
2023-01-11T00:42:56.549Z,100.00
2023-01-11T00:45:42.415Z,100.00
2023-01-11T00:48:10.848Z,100.00
2023-01-11T00:50:40.712Z,100.00
2023-01-11T00:53:09.077Z,100.00
2023-01-11T00:55:36.616Z,100.00
2023-01-11T00:58:04.081Z,100.00
2023-01-11T01:00:31.181Z,100.00
2023-01-11T01:02:58.017Z,100.00
2023-01-11T01:05:25.520Z,100.00
2023-01-11T01:07:52.338Z,100.00
2023-01-11T01:10:19.529Z,100.00
2023-01-11T01:13:05.254Z,100.00
2023-01-11T01:15:33.374Z,100.00
2023-01-11T01:18:00.262Z,100.00
2023-01-11T01:20:27.408Z,100.00
2023-01-11T01:22:54.198Z,100.00
2023-01-11T01:25:21.264Z,100.00
2023-01-11T01:27:48.045Z,100.00
2023-01-11T01:30:15.213Z,100.00
2023-01-11T01:32:42.435Z,100.00
2023-01-11T01:35:09.916Z,100.00
2023-01-11T01:37:37.399Z,100.00
2023-01-11T01:40:05.393Z,100.00
2023-01-11T01:42:32.160Z,100.00
2023-01-11T01:45:30.265Z,100.00
2023-01-11T01:48:02.678Z,100.00
2023-01-11T01:50:36.459Z,100.00
2023-01-11T01:53:13.585Z,100.00
2023-01-11T01:55:45.633Z,100.00
2023-01-11T01:58:16.735Z,100.00
2023-01-11T02:00:45.487Z,100.00
2023-01-11T02:03:19.480Z,100.00
2023-01-11T02:05:48.941Z,100.00
2023-01-11T02:08:24.729Z,100.00
2023-01-11T02:10:53.322Z,100.00
2023-01-11T02:13:21.310Z,100.00
2023-01-11T02:16:07.565Z,100.00
2023-01-11T02:18:36.498Z,100.00
2023-01-11T02:21:16.249Z,100.00
2023-01-11T02:23:45.979Z,100.00
2023-01-11T02:26:16.879Z,100.00
2023-01-11T02:29:04.127Z,100.00
2023-01-11T02:31:51.392Z,100.00
2023-01-11T02:34:30.414Z,100.00
2023-01-11T02:37:06.600Z,100.00
2023-01-11T02:40:04.545Z,100.00
2023-01-11T02:42:57.313Z,100.00
2023-01-11T02:45:43.168Z,100.00
2023-01-11T02:48:25.428Z,100.00
2023-01-11T02:51:41.807Z,100.00
2023-01-11T02:54:11.506Z,100.00
2023-01-11T02:56:43.912Z,100.00
2023-01-11T02:59:14.195Z,100.00
2023-01-11T03:01:48.838Z,100.00
2023-01-11T03:04:36.290Z,100.00
2023-01-11T03:07:40.068Z,100.00
2023-01-11T03:10:18.258Z,100.00
2023-01-11T03:12:57.136Z,100.00
2023-01-11T03:15:45.430Z,100.00
2023-01-11T03:18:36.403Z,100.00
2023-01-11T03:21:12.394Z,100.00
2023-01-11T03:23:57.623Z,100.00
2023-01-11T03:26:24.583Z,100.00
2023-01-11T03:29:09.728Z,100.00
2023-01-11T03:31:42.068Z,100.00
2023-01-11T03:34:18.085Z,100.00
2023-01-11T03:36:50.997Z,100.00
2023-01-11T03:39:20.400Z,100.00
2023-01-11T03:41:51.320Z,100.00
2023-01-11T03:44:21.046Z,100.00
2023-01-11T03:46:53.116Z,100.00
2023-01-11T03:49:42.047Z,100.00
2023-01-11T03:52:12.744Z,100.00
2023-01-11T03:54:40.613Z,100.00
2023-01-11T03:57:16.477Z,100.00
2023-01-11T03:59:43.668Z,100.00
2023-01-11T04:02:28.478Z,100.00
2023-01-11T04:04:55.287Z,100.00
2023-01-11T04:07:22.320Z,100.00
2023-01-11T04:09:49.087Z,100.00
2023-01-11T04:12:16.331Z,100.00
2023-01-11T04:14:43.131Z,100.00
2023-01-11T04:17:10.187Z,100.00
2023-01-11T04:19:37.011Z,100.00
2023-01-11T04:22:04.065Z,100.00
2023-01-11T04:24:30.815Z,100.00
2023-01-11T04:26:57.880Z,100.00
2023-01-11T04:29:24.648Z,100.00
2023-01-11T04:31:51.846Z,100.00
2023-01-11T04:34:18.650Z,100.00
2023-01-11T04:36:45.715Z,100.00
2023-01-11T04:39:12.570Z,100.00
2023-01-11T04:41:58.435Z,100.00
2023-01-11T04:44:25.244Z,100.00
2023-01-11T04:46:52.463Z,100.00
2023-01-11T04:49:19.237Z,100.00
2023-01-11T04:51:46.425Z,100.00
2023-01-11T04:54:15.363Z,100.00
2023-01-11T04:56:42.394Z,100.00
2023-01-11T04:59:09.150Z,100.00
2023-01-11T05:01:36.193Z,100.00
2023-01-11T05:04:03.046Z,100.00
2023-01-11T05:06:30.201Z,100.00
2023-01-11T05:08:57.008Z,100.00
2023-01-11T05:11:24.338Z,100.00
2023-01-11T05:13:51.303Z,100.00
2023-01-11T05:16:21.028Z,100.00
2023-01-11T05:18:51.443Z,100.00
2023-01-11T05:21:21.589Z,100.00
2023-01-11T05:23:49.081Z,100.00
2023-01-11T05:26:22.898Z,100.00
2023-01-11T05:28:50.328Z,100.00
2023-01-11T05:31:17.810Z,100.00
2023-01-11T05:33:45.010Z,100.00
2023-01-11T05:36:14.979Z,100.00
2023-01-11T05:38:42.508Z,100.00
2023-01-11T05:41:10.323Z,100.00
2023-01-11T05:43:57.527Z,100.00
2023-01-11T05:46:26.155Z,100.00
2023-01-11T05:48:55.416Z,100.00
2023-01-11T05:51:22.959Z,100.00
2023-01-11T05:53:50.046Z,100.00
2023-01-11T05:56:17.129Z,100.00
2023-01-11T05:58:47.220Z,100.00
2023-01-11T06:01:14.465Z,100.00
2023-01-11T06:03:41.273Z,100.00
2023-01-11T06:06:08.697Z,100.00
2023-01-11T06:08:35.773Z,100.00
2023-01-11T06:11:03.364Z,100.00
2023-01-11T06:13:30.302Z,100.00
2023-01-11T06:16:03.404Z,100.00
2023-01-11T06:18:32.627Z,100.00
2023-01-11T06:21:02.839Z,100.00
2023-01-11T06:23:31.630Z,100.00
2023-01-11T06:26:07.305Z,100.00
2023-01-11T06:28:34.193Z,100.00
2023-01-11T06:31:01.350Z,100.00
2023-01-11T06:33:29.361Z,100.00
2023-01-11T06:35:57.340Z,100.00
2023-01-11T06:38:28.620Z,100.00
2023-01-11T06:41:00.906Z,100.00
2023-01-11T06:43:29.197Z,100.00
2023-01-11T06:45:57.042Z,100.00
2023-01-11T06:48:24.422Z,100.00
2023-01-11T06:50:54.149Z,100.00
2023-01-11T06:53:21.606Z,100.00
2023-01-11T06:55:53.589Z,100.00
2023-01-11T06:58:23.452Z,100.00
2023-01-11T07:00:55.216Z,100.00
2023-01-11T07:03:24.435Z,100.00
2023-01-11T07:05:53.018Z,100.00
2023-01-11T07:08:20.327Z,100.00
2023-01-11T07:10:47.930Z,100.00
2023-01-11T07:13:18.760Z,100.00
2023-01-11T07:15:49.913Z,100.00
2023-01-11T07:18:18.460Z,100.00
2023-01-11T07:20:45.606Z,100.00
2023-01-11T07:23:12.554Z,100.00
2023-01-11T07:25:39.726Z,100.00
2023-01-11T07:28:08.554Z,100.00
2023-01-11T07:30:55.593Z,100.00
2023-01-11T07:33:26.511Z,100.00
2023-01-11T07:35:53.815Z,100.00
2023-01-11T07:38:21.023Z,100.00
2023-01-11T07:40:48.165Z,100.00
2023-01-11T07:43:15.584Z,100.00
2023-01-11T07:45:46.925Z,100.00
2023-01-11T07:48:14.550Z,100.00
2023-01-11T07:50:44.774Z,100.00
2023-01-11T07:53:12.771Z,100.00
2023-01-11T07:55:40.880Z,100.00
2023-01-11T07:58:10.778Z,100.00
2023-01-11T08:00:37.867Z,100.00
2023-01-11T08:03:04.859Z,100.00
2023-01-11T08:05:32.069Z,100.00
2023-01-11T08:07:58.922Z,100.00
2023-01-11T08:10:26.073Z,100.00
2023-01-11T08:13:11.476Z,100.00
2023-01-11T08:15:42.324Z,100.00
2023-01-11T08:18:11.405Z,100.00
2023-01-11T08:20:39.177Z,100.00
2023-01-11T08:23:08.647Z,100.00
2023-01-11T08:25:35.786Z,100.00
2023-01-11T08:28:04.409Z,100.00
2023-01-11T08:30:31.581Z,100.00
2023-01-11T08:33:00.984Z,100.00
2023-01-11T08:35:28.879Z,100.00
2023-01-11T08:37:55.656Z,100.00
2023-01-11T08:40:24.200Z,100.00
2023-01-11T08:42:57.480Z,100.00
2023-01-11T08:45:25.140Z,100.00
2023-01-11T08:47:52.352Z,100.00
2023-01-11T08:50:22.268Z,100.00
2023-01-11T08:52:51.113Z,100.00
2023-01-11T08:55:21.744Z,100.00
2023-01-11T08:57:48.552Z,100.00
2023-01-11T09:00:16.020Z,100.00
2023-01-11T09:02:47.997Z,100.00
2023-01-11T09:05:18.026Z,100.00
2023-01-11T09:07:45.176Z,100.00
2023-01-11T09:10:12.409Z,100.00
2023-01-11T09:12:39.215Z,100.00
2023-01-11T09:15:06.935Z,100.00
2023-01-11T09:17:34.203Z,100.00
2023-01-11T09:20:01.311Z,100.00
2023-01-11T09:22:28.128Z,100.00
2023-01-11T09:24:56.130Z,100.00
2023-01-11T09:27:22.930Z,100.00
2023-01-11T09:29:50.035Z,100.00
2023-01-11T09:32:16.828Z,100.00
2023-01-11T09:34:46.800Z,100.00
2023-01-11T09:37:14.498Z,100.00
2023-01-11T09:39:41.902Z,100.00
2023-01-11T09:42:21.831Z,99.84
2023-01-11T09:44:56.754Z,96.83
2023-01-11T09:47:36.870Z,94.39
2023-01-11T09:50:17.269Z,91.43
2023-01-11T09:52:51.320Z,90.75
2023-01-11T09:55:25.236Z,87.64
2023-01-11T09:57:54.995Z,86.61
2023-01-11T10:00:41.634Z,84.78
2023-01-11T10:03:27.190Z,83.90
2023-01-11T10:06:13.077Z,81.72
2023-01-11T10:18:27.726Z,81.48
2023-01-11T10:18:39.530Z,79.82
2023-01-11T10:20:55.425Z,79.02
2023-01-11T10:23:32.208Z,76.53
2023-01-11T10:26:04.982Z,76.56
2023-01-11T10:28:43.265Z,74.35
2023-01-11T10:31:49.318Z,73.34
2023-01-11T10:34:39.044Z,74.53
2023-01-11T10:37:30.971Z,75.26
2023-01-11T10:40:29.532Z,73.30
2023-01-11T10:43:20.222Z,71.89
2023-01-11T10:45:52.629Z,70.58
2023-01-11T10:48:34.779Z,69.16
2023-01-11T10:51:07.870Z,67.34
2023-01-11T10:54:14.474Z,65.50
2023-01-11T10:57:02.454Z,64.63
2023-01-11T10:59:53.925Z,64.37
2023-01-11T11:02:39.928Z,62.22
2023-01-11T11:05:23.686Z,61.64
2023-01-11T11:08:10.064Z,61.40
2023-01-11T11:10:36.848Z,59.14
2023-01-11T11:13:22.391Z,58.86
2023-01-11T11:16:03.145Z,59.50
2023-01-11T11:18:30.379Z,60.05
2023-01-11T11:21:04.258Z,59.50
2023-01-11T11:23:31.609Z,60.71
2023-01-11T11:26:02.515Z,65.97
2023-01-11T11:28:32.122Z,68.68
2023-01-11T11:31:02.955Z,69.61
2023-01-11T11:33:39.304Z,71.25
2023-01-11T11:36:09.062Z,70.90
2023-01-11T11:38:39.128Z,70.35
2023-01-11T11:41:13.845Z,71.56
2023-01-11T11:43:42.663Z,65.46
2023-01-11T11:46:22.739Z,67.97
2023-01-11T11:49:18.048Z,66.91
2023-01-11T11:51:47.872Z,67.64
2023-01-11T11:54:37.265Z,67.23
2023-01-11T11:57:15.568Z,68.36
2023-01-11T11:59:48.949Z,67.84
2023-01-11T12:02:28.352Z,68.26
2023-01-11T12:04:58.240Z,68.71
2023-01-11T12:07:30.601Z,70.76
2023-01-11T12:10:07.273Z,70.65
2023-01-11T12:12:34.574Z,70.26
2023-01-11T12:15:15.868Z,71.66
2023-01-11T12:17:43.586Z,70.88
2023-01-11T12:20:22.734Z,69.31
2023-01-11T12:23:21.719Z,70.19
2023-01-11T12:26:16.636Z,71.36
2023-01-11T12:29:20.761Z,68.41
2023-01-11T12:32:21.925Z,69.49
2023-01-11T12:35:04.158Z,69.00
2023-01-11T12:37:53.364Z,69.87
2023-01-11T12:40:31.985Z,69.56
2023-01-11T12:43:22.689Z,71.77
2023-01-11T12:46:15.216Z,72.43
2023-01-11T12:49:03.364Z,72.27
2023-01-11T12:52:07.175Z,72.32
2023-01-11T12:54:54.874Z,71.34
2023-01-11T12:57:32.638Z,71.51
2023-01-11T13:00:13.509Z,72.49
2023-01-11T13:03:02.170Z,72.02
2023-01-11T13:05:48.825Z,72.61
2023-01-11T13:08:33.661Z,72.80
2023-01-11T13:11:36.710Z,74.10
2023-01-11T13:14:22.959Z,73.67
2023-01-11T13:17:24.149Z,74.09
2023-01-11T13:20:26.297Z,74.50
2023-01-11T13:23:03.297Z,73.18
2023-01-11T13:25:34.209Z,72.74
2023-01-11T13:28:11.024Z,72.63
2023-01-11T13:30:42.844Z,73.77
2023-01-11T13:33:19.067Z,72.95
2023-01-11T13:35:53.840Z,72.38
2023-01-11T13:38:38.851Z,71.95
2023-01-11T13:41:30.125Z,72.50
2023-01-11T13:44:06.162Z,73.93
2023-01-11T13:47:04.014Z,73.67
2023-01-11T13:49:42.766Z,73.74
2023-01-11T13:52:24.929Z,73.71
2023-01-11T13:55:24.940Z,74.83
2023-01-11T13:58:27.605Z,74.16
2023-01-11T14:01:07.696Z,75.17
2023-01-11T14:03:40.979Z,76.73
2023-01-11T14:06:23.238Z,77.52
2023-01-11T14:09:35.299Z,78.36
2023-01-11T14:12:09.040Z,78.34
2023-01-11T14:15:14.285Z,78.81
2023-01-11T14:18:10.442Z,79.83
2023-01-11T14:20:40.279Z,79.42
2023-01-11T14:23:17.159Z,79.77
2023-01-11T14:25:53.372Z,80.11
2023-01-11T14:28:59.366Z,81.00
2023-01-11T14:31:54.948Z,81.71
2023-01-11T14:34:43.904Z,82.19
2023-01-11T14:37:30.578Z,82.42
2023-01-11T14:40:19.140Z,83.11
2023-01-11T14:43:33.354Z,83.66
2023-01-11T14:46:24.183Z,84.00
2023-01-11T14:48:53.606Z,85.13
2023-01-11T14:51:32.605Z,87.00
2023-01-11T14:54:23.439Z,87.37
2023-01-11T14:56:55.902Z,87.63
2023-01-11T14:59:31.499Z,87.55
2023-01-11T15:02:04.949Z,87.52
2023-01-11T15:04:37.633Z,89.77
2023-01-11T15:07:29.170Z,90.93
2023-01-11T15:09:58.190Z,90.68
2023-01-11T15:12:37.520Z,91.31
2023-01-11T15:15:22.625Z,93.35
2023-01-11T15:18:15.941Z,92.49
2023-01-11T15:20:58.314Z,94.01
2023-01-11T15:23:26.140Z,93.95
2023-01-11T15:26:02.003Z,94.83
2023-01-11T15:28:33.838Z,95.47
2023-01-11T15:31:04.395Z,95.78
2023-01-11T15:33:48.746Z,97.14
2023-01-11T15:36:15.828Z,96.88
2023-01-11T15:38:49.609Z,97.32
2023-01-11T15:42:00.616Z,98.10
2023-01-11T15:44:49.039Z,99.02
2023-01-11T15:47:36.381Z,99.15
2023-01-11T15:50:31.705Z,99.05
2023-01-11T15:53:25.436Z,99.76
2023-01-11T15:56:10.937Z,100.00
2023-01-11T15:59:02.339Z,100.00
2023-01-11T16:01:29.970Z,100.00
2023-01-11T16:04:15.234Z,100.00
2023-01-11T16:06:53.047Z,100.00
2023-01-11T16:09:33.237Z,100.00
2023-01-11T16:12:34.193Z,100.00
2023-01-11T16:15:15.558Z,100.00
2023-01-11T16:17:46.207Z,100.00
2023-01-11T16:20:23.599Z,100.00
2023-01-11T16:22:57.389Z,100.00
2023-01-11T16:25:30.124Z,100.00
2023-01-11T16:27:59.637Z,100.00
2023-01-11T16:30:27.879Z,100.00
2023-01-11T16:33:20.265Z,100.00
2023-01-11T16:35:47.239Z,100.00
2023-01-11T16:38:21.316Z,100.00
2023-01-11T16:40:51.251Z,100.00
2023-01-11T16:43:29.040Z,100.00
2023-01-11T16:45:56.276Z,100.00
2023-01-11T16:48:29.462Z,100.00
2023-01-11T16:51:19.448Z,100.00
2023-01-11T16:53:58.115Z,100.00
2023-01-11T16:56:25.228Z,100.00
2023-01-11T16:59:24.688Z,100.00
2023-01-11T17:02:00.394Z,100.00
2023-01-11T17:04:50.533Z,100.00
2023-01-11T17:07:30.559Z,100.00
2023-01-11T17:10:19.004Z,100.00
2023-01-11T17:12:52.080Z,100.00
2023-01-11T17:15:49.401Z,100.00
2023-01-11T17:18:17.299Z,100.00
2023-01-11T17:20:44.528Z,100.00
2023-01-11T17:23:16.513Z,100.00
2023-01-11T17:25:45.160Z,100.00
2023-01-11T17:28:19.524Z,100.00
2023-01-11T17:30:50.700Z,100.00
2023-01-11T17:33:31.917Z,100.00
2023-01-11T17:36:00.245Z,100.00
2023-01-11T17:38:28.272Z,100.00
2023-01-11T17:41:01.227Z,100.00
2023-01-11T17:43:48.106Z,100.00
2023-01-11T17:46:22.213Z,100.00
2023-01-11T17:48:56.260Z,100.00
2023-01-11T17:51:25.892Z,100.00
2023-01-11T17:53:53.276Z,100.00
2023-01-11T17:56:38.090Z,100.00
2023-01-11T17:59:26.435Z,100.00
2023-01-11T18:01:55.007Z,100.00
2023-01-11T18:04:22.885Z,100.00
2023-01-11T18:06:53.779Z,100.00
2023-01-11T18:09:29.238Z,100.00
2023-01-11T18:12:45.451Z,100.00
2023-01-11T18:15:23.142Z,100.00
2023-01-11T18:17:56.714Z,100.00
2023-01-11T18:20:29.420Z,100.00
2023-01-11T18:23:04.002Z,100.00
2023-01-11T18:25:34.834Z,100.00
2023-01-11T18:28:26.435Z,100.00
2023-01-11T18:30:57.774Z,100.00
2023-01-11T18:33:28.355Z,100.00
2023-01-11T18:35:59.840Z,100.00
2023-01-11T18:38:35.714Z,100.00
2023-01-11T18:41:28.117Z,100.00
2023-01-11T18:43:58.404Z,100.00
2023-01-11T18:46:25.635Z,100.00
2023-01-11T18:48:53.420Z,100.00
2023-01-11T18:51:45.097Z,100.00
2023-01-11T18:54:16.202Z,100.00
2023-01-11T18:56:43.124Z,100.00
2023-01-11T18:59:10.178Z,100.00
2023-01-11T19:01:52.618Z,100.00
2023-01-11T19:04:23.438Z,100.00
2023-01-11T19:06:52.398Z,100.00
2023-01-11T19:09:19.489Z,100.00
2023-01-11T19:11:46.282Z,100.00
2023-01-11T19:14:13.458Z,100.00
2023-01-11T19:16:40.263Z,100.00
2023-01-11T19:19:07.400Z,100.00
2023-01-11T19:21:34.193Z,100.00
2023-01-11T19:24:01.369Z,100.00
2023-01-11T19:26:28.326Z,100.00
2023-01-11T19:28:55.590Z,100.00
2023-01-11T19:31:22.461Z,100.00
2023-01-11T19:33:49.623Z,100.00
2023-01-11T19:36:16.438Z,100.00
2023-01-11T19:38:43.514Z,100.00
2023-01-11T19:41:12.111Z,100.00
2023-01-11T19:43:44.888Z,100.00
2023-01-11T19:46:15.016Z,100.00
2023-01-11T19:48:44.253Z,100.00
2023-01-11T19:51:12.384Z,100.00
2023-01-11T19:53:40.268Z,100.00
2023-01-11T19:56:08.977Z,100.00
2023-01-11T19:58:37.775Z,100.00
2023-01-11T20:01:11.867Z,100.00
2023-01-11T20:03:42.653Z,100.00
2023-01-11T20:06:09.581Z,100.00
2023-01-11T20:08:38.580Z,100.00
2023-01-11T20:11:07.824Z,100.00
2023-01-11T20:13:35.127Z,100.00
2023-01-11T20:16:10.816Z,100.00
2023-01-11T20:18:38.278Z,100.00
2023-01-11T20:21:05.821Z,100.00
2023-01-11T20:23:33.335Z,100.00
2023-01-11T20:26:01.346Z,100.00
2023-01-11T20:28:28.848Z,100.00
2023-01-11T20:30:56.360Z,100.00
2023-01-11T20:33:23.422Z,100.00
2023-01-11T20:35:50.272Z,100.00
2023-01-11T20:38:17.387Z,100.00
2023-01-11T20:40:44.232Z,100.00
2023-01-11T20:43:11.695Z,100.00
2023-01-11T20:45:39.720Z,100.00
2023-01-11T20:48:07.631Z,100.00
2023-01-11T20:50:37.473Z,100.00
2023-01-11T20:53:04.660Z,100.00
2023-01-11T20:55:31.461Z,100.00
2023-01-11T20:57:58.625Z,100.00
2023-01-11T21:00:25.644Z,100.00
2023-01-11T21:02:52.749Z,100.00
2023-01-11T21:05:19.745Z,100.00
2023-01-11T21:07:48.008Z,100.00
2023-01-11T21:10:14.871Z,100.00
2023-01-11T21:12:42.085Z,100.00
2023-01-11T21:15:10.763Z,100.00
2023-01-11T21:17:38.012Z,100.00
2023-01-11T21:20:05.319Z,100.00
2023-01-11T21:22:32.362Z,100.00
2023-01-11T21:24:59.228Z,100.00
2023-01-11T21:27:26.371Z,100.00
2023-01-11T21:29:53.161Z,100.00
2023-01-11T21:32:20.235Z,100.00
2023-01-11T21:34:47.099Z,100.00
2023-01-11T21:37:14.247Z,100.00
2023-01-11T21:39:41.121Z,100.00
2023-01-11T21:42:08.209Z,100.00
2023-01-11T21:44:35.191Z,100.00
2023-01-11T21:47:05.203Z,100.00
2023-01-11T21:49:32.532Z,100.00
2023-01-11T21:51:59.661Z,100.00
2023-01-11T21:54:26.485Z,100.00
2023-01-11T21:56:56.391Z,100.00
2023-01-11T21:59:23.627Z,100.00
2023-01-11T22:01:51.054Z,100.00
2023-01-11T22:04:19.986Z,100.00
2023-01-11T22:06:53.951Z,100.00
2023-01-11T22:09:21.645Z,100.00
2023-01-11T22:11:49.594Z,100.00
2023-01-11T22:14:16.418Z,100.00
2023-01-11T22:16:43.570Z,100.00
2023-01-11T22:19:10.568Z,100.00
2023-01-11T22:21:38.059Z,100.00
2023-01-11T22:24:06.854Z,100.00
2023-01-11T22:26:38.573Z,100.00
2023-01-11T22:29:14.656Z,100.00
2023-01-11T22:31:54.976Z,100.00
2023-01-11T22:34:22.779Z,100.00
2023-01-11T22:36:50.106Z,100.00
2023-01-11T22:39:19.621Z,100.00
2023-01-11T22:41:48.447Z,100.00
2023-01-11T22:44:15.559Z,100.00
2023-01-11T22:46:43.896Z,100.00
2023-01-11T22:49:11.444Z,100.00
2023-01-11T22:51:40.211Z,100.00
2023-01-11T22:54:07.090Z,100.00
2023-01-11T22:56:34.533Z,100.00
2023-01-11T22:59:01.335Z,100.00
2023-01-11T23:01:34.339Z,100.00
2023-01-11T23:04:02.311Z,100.00
2023-01-11T23:06:35.268Z,100.00
2023-01-11T23:09:03.248Z,100.00
2023-01-11T23:11:53.928Z,100.00
2023-01-11T23:14:21.310Z,100.00
2023-01-11T23:16:49.897Z,100.00
2023-01-11T23:19:18.704Z,100.00
2023-01-11T23:21:46.567Z,100.00
2023-01-11T23:24:15.097Z,100.00
2023-01-11T23:26:42.872Z,100.00
2023-01-11T23:29:09.748Z,100.00
2023-01-11T23:31:37.070Z,100.00
2023-01-11T23:34:06.899Z,100.00
2023-01-11T23:36:36.559Z,100.00
2023-01-11T23:39:04.802Z,100.00
2023-01-11T23:41:50.545Z,100.00
2023-01-11T23:44:18.362Z,100.00
2023-01-11T23:47:04.830Z,100.00
2023-01-11T23:49:32.636Z,100.00
2023-01-11T23:52:00.505Z,100.00
2023-01-11T23:54:29.858Z,100.00
2023-01-11T23:56:58.373Z,100.00
2023-01-11T23:59:25.289Z,100.00
